createdAt,value
2019-01-18T00:00:40.129Z,2.90
2019-01-18T00:03:10.110Z,2.33
2019-01-18T00:05:40.129Z,2.87
2019-01-18T00:08:10.052Z,2.80
2019-01-18T00:10:40.278Z,3.37
2019-01-18T00:13:10.321Z,3.07
2019-01-18T00:15:40.512Z,2.77
2019-01-18T00:18:10.679Z,3.00
2019-01-18T00:20:40.959Z,2.63
2019-01-18T00:23:11.583Z,3.30
2019-01-18T00:25:41.933Z,3.30
2019-01-18T00:28:11.619Z,3.53
2019-01-18T00:30:41.632Z,2.97
2019-01-18T00:33:11.547Z,3.00
2019-01-18T00:35:41.518Z,3.13
2019-01-18T00:38:11.713Z,3.00
2019-01-18T00:40:42.892Z,3.70
2019-01-18T00:43:13.115Z,3.10
2019-01-18T00:45:42.912Z,3.23
2019-01-18T00:48:18.020Z,3.30
2019-01-18T00:50:47.799Z,3.40
2019-01-18T00:53:19.543Z,3.67
2019-01-18T00:55:58.001Z,3.30
2019-01-18T00:58:27.961Z,3.30
2019-01-18T01:00:59.958Z,3.20
2019-01-18T01:03:31.287Z,3.27
2019-01-18T01:06:01.195Z,3.30
2019-01-18T01:08:31.144Z,3.17
2019-01-18T01:11:01.295Z,3.10
2019-01-18T01:13:31.515Z,3.13
2019-01-18T01:16:01.297Z,2.90
2019-01-18T01:18:31.274Z,3.23
2019-01-18T01:21:00.991Z,3.30
2019-01-18T01:23:30.509Z,3.27
2019-01-18T01:26:01.868Z,3.57
2019-01-18T01:28:31.730Z,3.03
2019-01-18T01:31:01.876Z,3.57
2019-01-18T01:33:31.853Z,3.27
2019-01-18T01:36:02.317Z,3.53
2019-01-18T01:38:32.293Z,2.93
2019-01-18T01:41:02.292Z,3.27
2019-01-18T01:43:32.779Z,3.80
2019-01-18T01:46:03.974Z,3.63
2019-01-18T01:48:35.096Z,3.50
2019-01-18T01:51:04.810Z,3.73
2019-01-18T01:53:34.560Z,3.50
2019-01-18T01:56:04.657Z,3.70
2019-01-18T01:58:34.361Z,3.57
2019-01-18T02:01:04.166Z,3.60
2019-01-18T02:03:33.974Z,3.50
2019-01-18T02:06:04.018Z,3.77
2019-01-18T02:08:34.670Z,3.70
2019-01-18T02:11:04.788Z,3.67
2019-01-18T02:13:34.837Z,4.10
2019-01-18T02:16:05.267Z,3.13
2019-01-18T02:18:35.397Z,3.50
2019-01-18T02:21:05.154Z,4.00
2019-01-18T02:23:35.359Z,3.60
2019-01-18T02:26:05.267Z,3.27
2019-01-18T02:28:35.478Z,3.33
2019-01-18T02:31:05.652Z,3.50
2019-01-18T02:33:36.119Z,3.70
2019-01-18T02:36:07.094Z,3.43
2019-01-18T02:38:37.596Z,3.13
2019-01-18T02:41:08.180Z,3.43
2019-01-18T02:43:39.133Z,3.63
2019-01-18T02:46:08.917Z,3.30
2019-01-18T02:48:38.937Z,3.20
2019-01-18T02:51:08.932Z,3.50
2019-01-18T02:53:39.458Z,3.13
2019-01-18T02:56:10.432Z,3.10
2019-01-18T02:58:40.593Z,3.17
2019-01-18T03:01:11.750Z,3.33
2019-01-18T03:03:43.004Z,3.50
2019-01-18T03:06:17.095Z,3.13
2019-01-18T03:08:51.754Z,3.03
2019-01-18T03:11:21.436Z,2.87
2019-01-18T03:13:51.958Z,3.27
2019-01-18T03:16:29.660Z,3.30
2019-01-18T03:19:00.343Z,3.90
2019-01-18T03:21:30.584Z,3.70
2019-01-18T03:24:03.366Z,3.40
2019-01-18T03:26:33.421Z,3.30
2019-01-18T03:29:03.427Z,3.10
2019-01-18T03:31:42.381Z,3.33
2019-01-18T03:34:12.457Z,2.80
2019-01-18T03:36:52.618Z,3.13
2019-01-18T03:39:22.504Z,2.57
2019-01-18T03:41:53.488Z,2.97
2019-01-18T03:44:23.865Z,2.30
2019-01-18T03:46:54.158Z,3.07
2019-01-18T03:49:30.934Z,3.27
2019-01-18T03:52:04.546Z,2.50
2019-01-18T03:54:35.111Z,3.40
2019-01-18T03:57:06.761Z,2.90
2019-01-18T03:59:37.334Z,3.37
2019-01-18T04:02:07.112Z,3.37
2019-01-18T04:04:41.843Z,3.23
2019-01-18T04:07:11.841Z,2.53
2019-01-18T04:09:41.864Z,3.30
2019-01-18T04:12:11.373Z,2.63
2019-01-18T04:14:42.378Z,3.07
2019-01-18T04:17:17.905Z,3.30
2019-01-18T04:19:45.642Z,2.80
2019-01-18T04:22:15.847Z,3.50
2019-01-18T04:24:48.373Z,3.40
2019-01-18T04:27:23.060Z,2.80
2019-01-18T04:29:53.773Z,2.70
2019-01-18T04:32:24.372Z,3.27
2019-01-18T04:34:57.417Z,2.77
2019-01-18T04:37:29.114Z,3.20
2019-01-18T04:40:05.193Z,2.90
2019-01-18T04:42:38.317Z,2.90
2019-01-18T04:45:10.695Z,2.90
2019-01-18T04:47:42.145Z,3.33
2019-01-18T04:50:15.562Z,2.60
2019-01-18T04:52:48.084Z,3.37
2019-01-18T04:55:19.576Z,3.40
2019-01-18T04:57:49.385Z,3.07
2019-01-18T05:00:28.557Z,2.90
2019-01-18T05:03:04.392Z,3.33
2019-01-18T05:05:33.219Z,2.70
2019-01-18T05:08:03.003Z,3.27
2019-01-18T05:10:38.879Z,2.80
2019-01-18T05:13:08.937Z,2.80
2019-01-18T05:15:42.007Z,3.20
2019-01-18T05:18:11.843Z,3.27
2019-01-18T05:20:42.997Z,3.30
2019-01-18T05:23:14.064Z,3.07
2019-01-18T05:25:46.667Z,3.10
2019-01-18T05:28:21.499Z,3.10
2019-01-18T05:30:53.857Z,3.03
2019-01-18T05:33:23.626Z,2.90
2019-01-18T05:35:54.657Z,3.47
2019-01-18T05:38:25.200Z,3.47
2019-01-18T05:40:56.603Z,3.60
2019-01-18T05:43:34.368Z,3.60
2019-01-18T05:46:14.060Z,3.57
2019-01-18T05:48:44.341Z,3.80
2019-01-18T05:51:24.921Z,3.70
2019-01-18T05:53:59.767Z,3.50
2019-01-18T05:56:30.036Z,3.37
2019-01-18T05:59:00.101Z,4.20
2019-01-18T06:01:32.298Z,3.77
2019-01-18T06:04:05.867Z,3.93
2019-01-18T06:06:37.315Z,3.00
2019-01-18T06:09:09.675Z,4.03
2019-01-18T06:11:40.288Z,3.90
2019-01-18T06:14:10.748Z,3.97
2019-01-18T06:16:41.196Z,3.30
2019-01-18T06:19:14.548Z,3.40
2019-01-18T06:21:44.259Z,4.10
2019-01-18T06:24:23.137Z,3.23
2019-01-18T06:26:59.073Z,3.30
2019-01-18T06:29:29.206Z,3.70
2019-01-18T06:31:59.651Z,3.10
2019-01-18T06:34:35.063Z,3.10
2019-01-18T06:37:04.625Z,3.13
2019-01-18T06:39:35.196Z,4.20
2019-01-18T06:42:05.020Z,3.47
2019-01-18T06:44:35.354Z,4.07
2019-01-18T06:47:04.998Z,4.67
2019-01-18T06:49:35.260Z,4.23
2019-01-18T06:52:04.972Z,4.03
2019-01-18T06:54:34.748Z,4.60
2019-01-18T06:57:07.819Z,5.40
2019-01-18T06:59:51.975Z,3.60
2019-01-18T07:02:22.173Z,4.37
2019-01-18T07:04:52.075Z,4.83
2019-01-18T07:07:22.520Z,4.50
2019-01-18T07:09:52.694Z,5.17
2019-01-18T07:12:44.670Z,4.50
2019-01-18T07:29:48.817Z,3.70
2019-01-18T07:32:18.182Z,4.03
2019-01-18T07:34:47.994Z,3.07
2019-01-18T07:37:17.936Z,3.63
2019-01-18T07:39:47.613Z,3.73
2019-01-18T07:42:18.019Z,3.30
2019-01-18T07:44:48.126Z,3.00
2019-01-18T07:48:43.305Z,4.47
2019-01-18T07:51:19.907Z,4.37
2019-01-18T07:53:55.262Z,4.97
2019-01-18T07:56:25.564Z,3.93
2019-01-18T07:59:52.910Z,4.40
2019-01-18T08:02:46.424Z,5.00
2019-01-18T08:05:37.885Z,4.33
2019-01-18T08:08:31.687Z,4.20
2019-01-18T08:11:07.702Z,4.13
2019-01-18T08:13:40.054Z,3.87
2019-01-18T08:16:11.813Z,3.60
2019-01-18T08:18:46.466Z,4.10
2019-01-18T08:21:21.862Z,3.70
2019-01-18T08:23:59.646Z,3.43
2019-01-18T08:26:44.654Z,3.27
2019-01-18T08:29:14.830Z,4.10
2019-01-18T08:31:44.625Z,3.90
2019-01-18T08:34:15.029Z,3.60
2019-01-18T08:36:45.071Z,3.73
2019-01-18T08:39:15.488Z,3.93
2019-01-18T08:41:45.677Z,4.10
2019-01-18T08:44:15.815Z,4.03
2019-01-18T08:46:45.586Z,4.90
2019-01-18T08:49:15.418Z,5.50
2019-01-18T08:51:45.468Z,5.00
2019-01-18T08:54:15.261Z,4.97
2019-01-18T08:56:45.194Z,4.53
2019-01-18T08:59:15.290Z,4.27
2019-01-18T09:01:45.073Z,3.97
2019-01-18T09:04:14.932Z,3.93
2019-01-18T09:06:50.599Z,4.40
2019-01-18T09:09:20.303Z,5.30
2019-01-18T09:11:49.852Z,5.17
2019-01-18T09:14:19.657Z,5.00
2019-01-18T09:16:49.901Z,3.50
2019-01-18T09:19:19.990Z,3.73
2019-01-18T09:21:53.021Z,4.17
2019-01-18T09:24:22.694Z,4.40
2019-01-18T09:26:52.508Z,5.43
2019-01-18T09:29:21.980Z,5.73
2019-01-18T09:31:51.662Z,6.47
2019-01-18T09:34:20.852Z,5.70
2019-01-18T09:36:50.047Z,6.40
2019-01-18T09:39:19.540Z,5.50
2019-01-18T09:41:48.747Z,6.47
2019-01-18T09:44:18.342Z,5.97
2019-01-18T09:46:47.788Z,6.10
2019-01-18T09:49:17.962Z,6.10
2019-01-18T09:51:50.017Z,5.77
2019-01-18T09:54:20.445Z,5.60
2019-01-18T09:56:50.487Z,5.23
2019-01-18T09:59:20.570Z,5.60
2019-01-18T10:01:50.116Z,6.03
2019-01-18T10:04:19.646Z,6.20
2019-01-18T10:06:53.941Z,6.00
2019-01-18T10:09:24.086Z,5.60
2019-01-18T10:11:53.670Z,5.43
2019-01-18T10:14:23.883Z,5.33
2019-01-18T10:16:54.747Z,5.47
2019-01-18T10:19:24.908Z,7.30
2019-01-18T10:21:55.203Z,6.07
2019-01-18T10:24:24.658Z,8.40
2019-01-18T10:26:55.806Z,7.77
2019-01-18T10:29:28.212Z,7.43
2019-01-18T10:31:58.632Z,6.40
2019-01-18T10:34:29.659Z,6.23
2019-01-18T10:36:59.485Z,5.13
2019-01-18T10:39:30.370Z,6.57
2019-01-18T10:42:04.910Z,5.37
2019-01-18T10:44:38.384Z,5.73
2019-01-18T10:47:08.749Z,5.97
2019-01-18T10:49:50.886Z,5.70
2019-01-18T10:52:40.926Z,6.33
2019-01-18T10:55:16.706Z,5.80
2019-01-18T10:57:49.143Z,6.17
2019-01-18T11:00:42.820Z,6.60
2019-01-18T11:03:15.887Z,6.10
2019-01-18T11:05:57.541Z,7.47
2019-01-18T11:08:32.732Z,7.17
2019-01-18T11:14:59.898Z,6.07
2019-01-18T11:18:39.842Z,5.50
2019-01-18T11:21:34.015Z,5.20
2019-01-18T11:24:03.837Z,4.60
2019-01-18T11:26:39.256Z,5.50
2019-01-18T11:29:11.499Z,5.30
2019-01-18T11:31:41.521Z,4.90
2019-01-18T11:34:11.524Z,7.20
2019-01-18T11:36:44.451Z,6.50
2019-01-18T11:39:17.994Z,7.30
2019-01-18T11:41:48.092Z,6.20
2019-01-18T11:44:18.595Z,6.77
2019-01-18T11:46:48.346Z,8.60
2019-01-18T11:49:17.943Z,7.43
2019-01-18T11:51:47.780Z,7.53
2019-01-18T11:54:17.576Z,6.87
2019-01-18T11:56:47.260Z,7.10
2019-01-18T11:59:16.940Z,7.00
2019-01-18T12:01:46.629Z,6.40
2019-01-18T12:04:16.385Z,4.80
2019-01-18T12:06:46.730Z,5.30
2019-01-18T12:09:16.202Z,5.50
2019-01-18T12:11:45.744Z,5.10
2019-01-18T12:14:15.349Z,5.90
2019-01-18T12:16:44.559Z,6.20
2019-01-18T12:19:14.154Z,5.17
2019-01-18T12:21:43.465Z,4.60
2019-01-18T12:24:12.915Z,5.00
2019-01-18T12:26:42.533Z,5.17
2019-01-18T12:29:12.124Z,4.73
2019-01-18T12:31:42.285Z,4.50
2019-01-18T12:34:11.996Z,5.20
2019-01-18T12:36:41.604Z,5.50
2019-01-18T12:39:12.010Z,5.37
2019-01-18T12:41:41.618Z,6.30
2019-01-18T12:44:10.976Z,5.43
2019-01-18T12:46:40.698Z,5.20
2019-01-18T12:49:10.510Z,5.97
2019-01-18T12:51:40.836Z,5.17
2019-01-18T12:54:10.395Z,5.67
2019-01-18T12:56:40.119Z,6.10
2019-01-18T12:59:10.220Z,4.97
2019-01-18T13:01:40.080Z,5.87
2019-01-18T13:04:09.716Z,5.90
2019-01-18T13:06:39.558Z,5.00
2019-01-18T13:09:09.601Z,7.60
2019-01-18T13:11:39.418Z,8.50
2019-01-18T13:14:08.815Z,5.90
2019-01-18T13:16:41.406Z,7.17
2019-01-18T13:19:17.041Z,5.90
2019-01-18T13:21:46.364Z,6.40
2019-01-18T13:24:15.914Z,5.73
2019-01-18T13:26:47.254Z,6.67
2019-01-18T13:29:17.510Z,6.27
2019-01-18T13:31:47.407Z,6.50
2019-01-18T13:34:16.894Z,6.77
2019-01-18T13:36:46.332Z,6.30
2019-01-18T13:39:15.633Z,5.60
2019-01-18T13:41:45.431Z,6.00
2019-01-18T13:44:14.811Z,5.80
2019-01-18T13:46:44.356Z,10.77
2019-01-18T13:49:13.561Z,5.83
2019-01-18T13:51:46.248Z,7.00
2019-01-18T13:54:14.593Z,7.50
2019-01-18T13:56:43.895Z,6.27
2019-01-18T13:59:13.725Z,5.90
2019-01-18T14:01:43.626Z,5.67
2019-01-18T14:04:13.510Z,6.17
2019-01-18T14:06:43.530Z,6.40
2019-01-18T14:09:12.875Z,5.60
2019-01-18T14:11:42.268Z,6.03
2019-01-18T14:14:12.401Z,6.53
2019-01-18T14:16:41.999Z,6.27
2019-01-18T14:19:11.615Z,7.40
2019-01-18T14:21:41.590Z,8.30
2019-01-18T14:24:11.021Z,9.77
2019-01-18T14:26:40.892Z,9.70
2019-01-18T14:29:10.581Z,6.77
2019-01-18T14:31:40.625Z,6.53
2019-01-18T14:34:10.229Z,5.10
2019-01-18T14:36:39.785Z,8.37
2019-01-18T14:39:11.605Z,7.07
2019-01-18T14:41:41.386Z,5.83
2019-01-18T14:44:11.039Z,6.90
2019-01-18T14:46:41.353Z,6.73
2019-01-18T14:49:11.912Z,5.80
2019-01-18T14:51:41.808Z,5.40
2019-01-18T14:54:11.221Z,5.10
2019-01-18T14:56:41.009Z,5.00
2019-01-18T14:59:10.823Z,6.60
2019-01-18T15:01:40.969Z,5.70
2019-01-18T15:04:10.314Z,5.50
2019-01-18T15:06:39.877Z,5.80
2019-01-18T15:09:11.306Z,5.10
2019-01-18T15:11:41.792Z,5.50
2019-01-18T15:14:11.251Z,6.00
2019-01-18T15:16:40.869Z,8.10
2019-01-18T15:19:10.781Z,10.73
2019-01-18T15:21:40.536Z,10.67
2019-01-18T15:24:10.182Z,8.30
2019-01-18T15:26:40.204Z,6.43
2019-01-18T15:29:09.918Z,7.33
2019-01-18T15:31:39.663Z,9.37
2019-01-18T15:34:09.525Z,16.60
2019-01-18T15:36:39.059Z,12.47
2019-01-18T15:39:12.214Z,26.53
2019-01-18T15:41:41.520Z,27.37
2019-01-18T15:44:11.295Z,12.00
2019-01-18T15:46:42.062Z,15.17
2019-01-18T15:49:11.728Z,18.07
2019-01-18T15:51:41.411Z,12.50
2019-01-18T15:54:11.228Z,13.17
2019-01-18T15:56:40.821Z,8.93
2019-01-18T15:59:11.002Z,6.40
2019-01-18T16:01:40.821Z,6.47
2019-01-18T16:04:10.569Z,5.50
2019-01-18T16:06:40.071Z,5.07
2019-01-18T16:09:10.066Z,4.93
2019-01-18T16:11:53.730Z,4.60
2019-01-18T16:18:19.649Z,8.00
2019-01-18T16:20:51.227Z,10.50
2019-01-18T16:23:23.298Z,12.53
2019-01-18T16:26:16.402Z,7.70
2019-01-18T16:28:48.883Z,7.80
2019-01-18T16:31:27.563Z,7.50
2019-01-18T16:33:58.482Z,9.37
2019-01-18T16:36:37.486Z,10.20
2019-01-18T16:39:17.799Z,9.30
2019-01-18T16:41:47.733Z,9.40
2019-01-18T16:44:17.241Z,11.37
2019-01-18T16:46:47.006Z,11.70
2019-01-18T16:49:16.989Z,15.00
2019-01-18T16:51:47.032Z,11.93
2019-01-18T16:54:20.160Z,10.13
2019-01-18T17:02:14.284Z,14.57
2019-01-18T17:04:44.225Z,17.10
2019-01-18T17:07:14.120Z,12.60
2019-01-18T17:09:44.263Z,14.50
2019-01-18T17:12:14.347Z,11.60
2019-01-18T17:14:44.840Z,10.30
2019-01-18T17:17:14.674Z,10.43
2019-01-18T17:19:46.907Z,11.30
2019-01-18T17:22:26.505Z,11.07
2019-01-18T17:25:01.253Z,14.60
2019-01-18T17:27:31.464Z,92.37
2019-01-18T17:30:03.408Z,25.73
2019-01-18T17:32:34.651Z,14.17
2019-01-18T17:35:06.252Z,7.70
2019-01-18T17:37:40.327Z,11.07
2019-01-18T17:40:26.716Z,10.90
2019-01-18T17:43:14.369Z,13.87
2019-01-18T17:46:25.986Z,11.43
2019-01-18T17:49:35.478Z,20.57
2019-01-18T17:52:40.282Z,14.20
2019-01-18T17:55:27.536Z,16.93
2019-01-18T17:58:38.222Z,14.77
2019-01-18T18:01:57.499Z,16.83
2019-01-18T18:04:42.052Z,11.57
2019-01-18T18:08:05.122Z,16.20
2019-01-18T18:11:15.616Z,26.70
2019-01-18T18:14:21.919Z,20.13
2019-01-18T18:17:34.377Z,20.80
2019-01-18T18:20:32.830Z,19.90
2019-01-18T18:23:23.187Z,15.63
2019-01-18T18:26:20.254Z,41.07
2019-01-18T18:29:09.550Z,25.83
2019-01-18T18:32:11.052Z,21.47
2019-01-18T18:35:27.434Z,22.53
2019-01-18T18:38:54.120Z,13.40
2019-01-18T18:41:57.576Z,9.10
2019-01-18T18:45:13.040Z,13.33
2019-01-18T18:48:22.008Z,17.20
2019-01-18T18:51:18.658Z,9.47
2019-01-18T18:55:01.712Z,10.30
2019-01-18T18:58:11.431Z,11.50
2019-01-18T19:01:11.248Z,8.60
2019-01-18T19:04:19.965Z,9.00
2019-01-18T19:07:36.529Z,12.10
2019-01-18T19:10:28.399Z,15.77
2019-01-18T19:13:38.145Z,29.27
2019-01-18T19:16:41.983Z,25.43
2019-01-18T19:19:54.517Z,13.00
2019-01-18T19:23:17.342Z,10.07
2019-01-18T19:26:25.043Z,8.17
2019-01-18T19:29:47.421Z,13.40
2019-01-18T19:32:43.938Z,9.23
2019-01-18T19:36:03.696Z,10.80
2019-01-18T19:39:11.574Z,10.43
2019-01-18T19:42:47.037Z,8.77
2019-01-18T19:45:44.630Z,10.47
2019-01-18T19:48:53.242Z,12.80
2019-01-18T19:51:53.422Z,19.47
2019-01-18T19:54:44.575Z,19.53
2019-01-18T19:57:51.545Z,24.50
2019-01-18T20:00:53.975Z,26.83
2019-01-18T20:03:33.749Z,21.67
2019-01-18T20:06:45.080Z,20.70
2019-01-18T20:09:56.737Z,19.87
2019-01-18T20:13:10.683Z,17.43
2019-01-18T20:27:20.754Z,10.07
2019-01-18T20:30:31.097Z,8.20
2019-01-18T20:33:35.580Z,9.47
2019-01-18T20:36:57.532Z,10.27
2019-01-18T20:40:04.262Z,14.13
2019-01-18T20:43:19.017Z,12.03
2019-01-18T20:46:29.256Z,8.70
2019-01-18T20:49:35.448Z,8.63
2019-01-18T20:52:49.598Z,9.10
2019-01-18T20:55:53.212Z,9.63
2019-01-18T20:59:03.782Z,8.40
2019-01-18T21:02:11.739Z,13.60
2019-01-18T21:05:22.157Z,10.23
2019-01-18T21:08:22.990Z,10.63
2019-01-18T21:11:46.765Z,18.63
2019-01-18T21:15:01.440Z,15.23
2019-01-18T21:17:45.761Z,14.77
2019-01-18T21:21:01.874Z,11.33
2019-01-18T21:24:24.096Z,17.33
2019-01-18T21:27:08.336Z,16.40
2019-01-18T21:34:04.610Z,21.13
2019-01-18T21:37:32.153Z,18.00
2019-01-18T21:40:17.413Z,11.27
2019-01-18T21:47:11.147Z,16.20
2019-01-18T21:50:33.946Z,17.97
2019-01-18T21:53:34.569Z,15.17
2019-01-18T21:56:33.942Z,15.80
2019-01-18T21:59:16.055Z,16.00
2019-01-18T22:02:32.967Z,14.33
2019-01-18T22:05:28.674Z,15.45
2019-01-18T22:08:15.465Z,14.17
2019-01-18T22:11:03.914Z,13.67
2019-01-18T22:37:06.046Z,11.87
2019-01-18T22:39:55.992Z,11.57
2019-01-18T22:43:07.954Z,11.90
2019-01-18T22:46:04.192Z,11.90
2019-01-18T22:49:33.873Z,12.10
2019-01-18T22:52:48.233Z,12.10
2019-01-18T22:55:38.380Z,10.60
2019-01-18T22:58:47.760Z,11.83
2019-01-18T23:01:49.619Z,10.00
2019-01-18T23:05:02.082Z,10.37
2019-01-18T23:08:23.347Z,9.00
2019-01-18T23:11:35.038Z,10.23
2019-01-18T23:14:50.805Z,10.53
2019-01-18T23:18:10.396Z,9.73
2019-01-18T23:21:18.230Z,9.73
2019-01-18T23:24:21.604Z,9.00
2019-01-18T23:27:37.014Z,12.00
2019-01-18T23:30:34.595Z,10.83
2019-01-18T23:33:48.526Z,11.93
2019-01-18T23:37:01.550Z,11.37
2019-01-18T23:40:26.751Z,11.57
2019-01-18T23:43:17.018Z,10.70
2019-01-18T23:46:01.237Z,9.83
2019-01-18T23:49:11.676Z,10.10
2019-01-18T23:52:02.808Z,9.47
2019-01-18T23:55:18.711Z,9.97
2019-01-18T23:58:23.796Z,9.77
